TVF3885 LIBD-LFPO
Flight info
| Callsign | TVF3885 |
|---|---|
| Flight time | N/A |
| Altitude | 36000 |
| Route | PISIP DCT VIE DCT RUPAX DCT BIDMA DCT OSBUL DCT AOSTA DCT ORSUD DCT MOLUS DCT UNKIR DCT DJL |
| Aircraft | B738/M-SDE2E3FGHIRWXY/LB1 |
Departure
| Time | N/A |
|---|---|
| Airport | Bari Karol Wojtyła International Airport (LIBD) |
Arrival
| Time | 2026-05-03 22:08 |
|---|---|
| Airport | Paris-Orly Airport (LFPO) |
| Time | Latitude | Longitude | Altitude | Speed | Heading |
|---|---|---|---|---|---|
| 2026-05-03 20:15 | 42.10230 | 15.76897 | 32133 ft | 411 kts | 314° |
| 2026-05-03 20:15 | 42.12143 | 15.74051 | 32497 ft | 409 kts | 314° |
| 2026-05-03 20:15 | 42.14051 | 15.71210 | 32834 ft | 408 kts | 314° |
| 2026-05-03 20:15 | 42.15956 | 15.68371 | 33164 ft | 408 kts | 314° |
| 2026-05-03 20:16 | 42.17855 | 15.65537 | 33483 ft | 407 kts | 314° |
| 2026-05-03 20:16 | 42.19747 | 15.62711 | 33825 ft | 406 kts | 314° |
| 2026-05-03 20:16 | 42.21633 | 15.59892 | 34119 ft | 405 kts | 314° |
| 2026-05-03 20:16 | 42.23520 | 15.57070 | 34386 ft | 404 kts | 314° |
| 2026-05-03 20:17 | 42.25404 | 15.54248 | 34623 ft | 404 kts | 314° |
| 2026-05-03 20:17 | 42.27284 | 15.51431 | 34865 ft | 404 kts | 314° |
| 2026-05-03 20:17 | 42.29166 | 15.48608 | 35114 ft | 404 kts | 314° |
| 2026-05-03 20:17 | 42.31015 | 15.45754 | 35328 ft | 404 kts | 312° |
| 2026-05-03 20:18 | 42.32798 | 15.42807 | 35533 ft | 406 kts | 311° |
| 2026-05-03 20:18 | 42.34547 | 15.39821 | 35770 ft | 405 kts | 310° |
| 2026-05-03 20:18 | 42.36285 | 15.36823 | 36019 ft | 404 kts | 310° |
| 2026-05-03 20:19 | 42.39771 | 15.30814 | 36109 ft | 408 kts | 310° |
| 2026-05-03 20:19 | 42.43286 | 15.24786 | 36093 ft | 405 kts | 310° |
| 2026-05-03 20:20 | 42.46758 | 15.18841 | 36111 ft | 401 kts | 310° |
| 2026-05-03 20:20 | 42.50210 | 15.12928 | 36097 ft | 399 kts | 310° |
| 2026-05-03 20:21 | 42.53621 | 15.07077 | 36117 ft | 398 kts | 310° |
| 2026-05-03 20:21 | 42.57046 | 15.01190 | 36120 ft | 398 kts | 310° |
| 2026-05-03 20:22 | 42.60475 | 14.95283 | 36124 ft | 399 kts | 310° |
| 2026-05-03 20:22 | 42.63914 | 14.89347 | 36119 ft | 401 kts | 310° |
| 2026-05-03 20:23 | 42.67362 | 14.83384 | 36117 ft | 402 kts | 310° |
| 2026-05-03 20:23 | 42.70824 | 14.77385 | 36117 ft | 404 kts | 310° |
| 2026-05-03 20:24 | 42.74291 | 14.71363 | 36115 ft | 405 kts | 310° |
| 2026-05-03 20:24 | 42.77762 | 14.65323 | 36109 ft | 405 kts | 310° |
| 2026-05-03 20:25 | 42.81231 | 14.59273 | 36114 ft | 405 kts | 310° |
| 2026-05-03 20:25 | 42.84696 | 14.53219 | 36113 ft | 405 kts | 310° |
| 2026-05-03 20:26 | 42.88146 | 14.47178 | 36109 ft | 403 kts | 310° |
| 2026-05-03 20:26 | 42.91588 | 14.41140 | 36113 ft | 402 kts | 310° |
| 2026-05-03 20:27 | 42.95016 | 14.35113 | 36110 ft | 401 kts | 310° |
| 2026-05-03 20:27 | 42.98433 | 14.29093 | 36111 ft | 401 kts | 310° |
| 2026-05-03 20:28 | 43.01841 | 14.23079 | 36109 ft | 400 kts | 310° |
| 2026-05-03 20:28 | 43.05243 | 14.17060 | 36115 ft | 400 kts | 310° |
| 2026-05-03 20:29 | 43.08642 | 14.11037 | 36115 ft | 400 kts | 310° |
| 2026-05-03 20:29 | 43.12045 | 14.04993 | 36112 ft | 401 kts | 309° |
| 2026-05-03 20:30 | 43.15445 | 13.98944 | 36111 ft | 401 kts | 309° |
| 2026-05-03 20:30 | 43.18850 | 13.92871 | 36118 ft | 402 kts | 309° |
| 2026-05-03 20:31 | 43.22258 | 13.86782 | 36111 ft | 403 kts | 309° |
| 2026-05-03 20:31 | 43.25092 | 13.81707 | 36112 ft | 404 kts | 309° |
| 2026-05-03 20:32 | 43.28509 | 13.75577 | 36111 ft | 405 kts | 309° |
| 2026-05-03 20:32 | 43.31926 | 13.69435 | 36112 ft | 405 kts | 309° |
| 2026-05-03 20:33 | 43.35347 | 13.63273 | 36111 ft | 406 kts | 309° |
| 2026-05-03 20:33 | 43.38769 | 13.57096 | 36111 ft | 406 kts | 309° |
| 2026-05-03 20:34 | 43.42192 | 13.50905 | 36113 ft | 407 kts | 309° |
| 2026-05-03 20:34 | 43.45614 | 13.44701 | 36108 ft | 407 kts | 308° |
| 2026-05-03 20:35 | 43.49035 | 13.38487 | 36104 ft | 407 kts | 308° |
| 2026-05-03 20:35 | 43.52454 | 13.32263 | 36107 ft | 407 kts | 308° |
| 2026-05-03 20:36 | 43.55872 | 13.26027 | 36102 ft | 407 kts | 308° |
| 2026-05-03 20:36 | 43.59259 | 13.19834 | 36107 ft | 407 kts | 308° |
| 2026-05-03 20:37 | 43.62667 | 13.13592 | 36107 ft | 407 kts | 308° |
| 2026-05-03 20:37 | 43.66066 | 13.07337 | 36106 ft | 407 kts | 306° |
| 2026-05-03 20:38 | 43.69077 | 13.00701 | 36106 ft | 408 kts | 302° |
| 2026-05-03 20:38 | 43.71985 | 12.93960 | 36111 ft | 408 kts | 302° |
| 2026-05-03 20:39 | 43.74896 | 12.87218 | 36112 ft | 408 kts | 302° |
| 2026-05-03 20:39 | 43.77817 | 12.80474 | 36115 ft | 409 kts | 302° |
| 2026-05-03 20:40 | 43.80744 | 12.73720 | 36109 ft | 410 kts | 302° |
| 2026-05-03 20:40 | 43.83675 | 12.66945 | 36107 ft | 410 kts | 301° |
| 2026-05-03 20:41 | 43.86605 | 12.60155 | 36112 ft | 411 kts | 301° |
| 2026-05-03 20:41 | 43.89536 | 12.53349 | 36105 ft | 412 kts | 301° |
| 2026-05-03 20:42 | 43.92467 | 12.46526 | 36112 ft | 412 kts | 301° |
| 2026-05-03 20:42 | 43.95395 | 12.39694 | 36107 ft | 413 kts | 301° |
| 2026-05-03 20:43 | 43.98307 | 12.32881 | 36120 ft | 413 kts | 301° |
| 2026-05-03 20:43 | 44.01235 | 12.26015 | 36111 ft | 413 kts | 300° |
| 2026-05-03 20:44 | 44.04162 | 12.19137 | 36114 ft | 414 kts | 300° |
| 2026-05-03 20:44 | 44.07085 | 12.12251 | 36113 ft | 413 kts | 300° |
| 2026-05-03 20:45 | 44.10002 | 12.05361 | 36107 ft | 414 kts | 300° |
| 2026-05-03 20:45 | 44.12916 | 11.98463 | 36107 ft | 414 kts | 300° |
| 2026-05-03 20:46 | 44.15827 | 11.91555 | 36110 ft | 413 kts | 300° |
| 2026-05-03 20:46 | 44.18733 | 11.84642 | 36114 ft | 413 kts | 300° |
| 2026-05-03 20:47 | 44.21633 | 11.77727 | 36124 ft | 413 kts | 300° |
| 2026-05-03 20:47 | 44.24531 | 11.70801 | 36144 ft | 413 kts | 300° |
| 2026-05-03 20:48 | 44.27422 | 11.63873 | 36160 ft | 413 kts | 299° |
| 2026-05-03 20:48 | 44.30306 | 11.56945 | 36156 ft | 413 kts | 299° |
| 2026-05-03 20:49 | 44.33186 | 11.50012 | 36135 ft | 413 kts | 299° |
| 2026-05-03 20:49 | 44.36060 | 11.43074 | 36115 ft | 413 kts | 299° |
| 2026-05-03 20:50 | 44.38933 | 11.36122 | 36096 ft | 413 kts | 299° |
| 2026-05-03 20:50 | 44.41798 | 11.29172 | 36087 ft | 412 kts | 299° |
| 2026-05-03 20:51 | 44.44640 | 11.22263 | 36075 ft | 412 kts | 298° |
| 2026-05-03 20:51 | 44.47490 | 11.15315 | 36083 ft | 412 kts | 298° |
| 2026-05-03 20:52 | 44.50336 | 11.08362 | 36107 ft | 411 kts | 298° |
| 2026-05-03 20:52 | 44.53175 | 11.01406 | 36125 ft | 411 kts | 298° |
| 2026-05-03 20:53 | 44.56010 | 10.94445 | 36147 ft | 411 kts | 298° |
| 2026-05-03 20:53 | 44.58839 | 10.87482 | 36168 ft | 411 kts | 298° |
| 2026-05-03 20:54 | 44.61663 | 10.80514 | 36177 ft | 411 kts | 297° |
| 2026-05-03 20:54 | 44.65888 | 10.70053 | 36158 ft | 411 kts | 297° |
| 2026-05-03 20:55 | 44.68702 | 10.63067 | 36135 ft | 411 kts | 297° |
| 2026-05-03 20:55 | 44.71513 | 10.56069 | 36118 ft | 411 kts | 297° |
| 2026-05-03 20:56 | 44.74317 | 10.49071 | 36085 ft | 411 kts | 297° |
| 2026-05-03 20:56 | 44.77118 | 10.42063 | 36083 ft | 411 kts | 297° |
| 2026-05-03 20:57 | 44.79914 | 10.35053 | 36084 ft | 411 kts | 297° |
| 2026-05-03 20:57 | 44.82690 | 10.28013 | 36075 ft | 410 kts | 295° |
| 2026-05-03 20:58 | 44.85222 | 10.20874 | 36088 ft | 410 kts | 293° |
| 2026-05-03 20:58 | 44.87713 | 10.13585 | 36072 ft | 410 kts | 293° |
| 2026-05-03 20:59 | 44.90194 | 10.06348 | 36078 ft | 410 kts | 293° |
| 2026-05-03 20:59 | 44.92671 | 9.99159 | 36077 ft | 410 kts | 293° |
| 2026-05-03 21:00 | 44.94761 | 9.93096 | 36075 ft | 410 kts | 293° |
| 2026-05-03 21:00 | 44.97659 | 9.84672 | 36082 ft | 410 kts | 293° |
| 2026-05-03 21:01 | 45.00149 | 9.77413 | 36087 ft | 410 kts | 293° |
| 2026-05-03 21:01 | 45.02634 | 9.70149 | 36084 ft | 411 kts | 293° |
| 2026-05-03 21:02 | 45.05116 | 9.62875 | 36088 ft | 411 kts | 293° |
| 2026-05-03 21:02 | 45.07592 | 9.55598 | 36088 ft | 411 kts | 293° |
| 2026-05-03 21:03 | 45.10065 | 9.48307 | 36091 ft | 411 kts | 293° |
| 2026-05-03 21:03 | 45.12534 | 9.41010 | 36094 ft | 411 kts | 292° |
| 2026-05-03 21:04 | 45.14998 | 9.33709 | 36091 ft | 411 kts | 292° |
| 2026-05-03 21:04 | 45.17454 | 9.26409 | 36093 ft | 410 kts | 292° |
| 2026-05-03 21:05 | 45.19906 | 9.19104 | 36100 ft | 410 kts | 292° |
| 2026-05-03 21:05 | 45.22355 | 9.11785 | 36099 ft | 410 kts | 292° |
| 2026-05-03 21:06 | 45.24796 | 9.04470 | 36097 ft | 410 kts | 292° |
| 2026-05-03 21:06 | 45.27234 | 8.97144 | 36103 ft | 410 kts | 292° |
| 2026-05-03 21:07 | 45.29651 | 8.89861 | 36086 ft | 410 kts | 292° |
| 2026-05-03 21:07 | 45.32081 | 8.82519 | 36080 ft | 410 kts | 292° |
| 2026-05-03 21:08 | 45.34520 | 8.75127 | 36077 ft | 411 kts | 292° |
| 2026-05-03 21:08 | 45.36926 | 8.67817 | 36079 ft | 411 kts | 291° |
| 2026-05-03 21:09 | 45.39345 | 8.60444 | 36079 ft | 411 kts | 291° |
| 2026-05-03 21:09 | 45.41762 | 8.53058 | 36081 ft | 412 kts | 291° |
| 2026-05-03 21:10 | 45.44179 | 8.45650 | 36087 ft | 413 kts | 291° |
| 2026-05-03 21:10 | 45.46592 | 8.38236 | 36107 ft | 413 kts | 291° |
| 2026-05-03 21:11 | 45.49005 | 8.30798 | 36108 ft | 414 kts | 291° |
| 2026-05-03 21:11 | 45.51418 | 8.23340 | 36113 ft | 415 kts | 291° |
| 2026-05-03 21:12 | 45.53832 | 8.15858 | 36118 ft | 415 kts | 291° |
| 2026-05-03 21:12 | 45.56243 | 8.08362 | 36118 ft | 416 kts | 291° |
| 2026-05-03 21:13 | 45.58653 | 8.00850 | 36135 ft | 417 kts | 291° |
| 2026-05-03 21:13 | 45.61063 | 7.93315 | 36136 ft | 417 kts | 291° |
| 2026-05-03 21:14 | 45.63471 | 7.85763 | 36138 ft | 418 kts | 291° |
| 2026-05-03 21:14 | 45.65875 | 7.78204 | 36139 ft | 418 kts | 291° |
| 2026-05-03 21:15 | 45.68274 | 7.70634 | 36139 ft | 418 kts | 291° |
| 2026-05-03 21:15 | 45.70668 | 7.63061 | 36140 ft | 418 kts | 290° |
| 2026-05-03 21:16 | 45.73054 | 7.55489 | 36139 ft | 417 kts | 290° |
| 2026-05-03 21:16 | 45.75419 | 7.47963 | 36152 ft | 418 kts | 290° |
| 2026-05-03 21:17 | 45.77412 | 7.41606 | 36145 ft | 418 kts | 290° |
| 2026-05-03 21:17 | 45.79290 | 7.36768 | 36130 ft | 424 kts | 302° |
| 2026-05-03 21:17 | 45.81171 | 7.33492 | 36126 ft | 428 kts | 309° |
| 2026-05-03 21:18 | 45.85848 | 7.28090 | 36130 ft | 434 kts | 321° |
| 2026-05-03 21:18 | 45.90842 | 7.23212 | 36122 ft | 435 kts | 320° |
| 2026-05-03 21:19 | 45.95797 | 7.18219 | 36094 ft | 435 kts | 320° |
| 2026-05-03 21:19 | 46.00719 | 7.13176 | 36104 ft | 434 kts | 320° |
| 2026-05-03 21:20 | 46.04810 | 7.08968 | 36095 ft | 434 kts | 320° |
| 2026-05-03 21:20 | 46.09732 | 7.03900 | 36080 ft | 435 kts | 320° |
| 2026-05-03 21:21 | 46.14656 | 6.98822 | 36073 ft | 435 kts | 320° |
| 2026-05-03 21:21 | 46.19574 | 6.93739 | 36067 ft | 435 kts | 320° |
| 2026-05-03 21:22 | 46.24488 | 6.88649 | 36072 ft | 435 kts | 319° |
| 2026-05-03 21:22 | 46.29405 | 6.83543 | 36078 ft | 435 kts | 319° |
| 2026-05-03 21:23 | 46.34327 | 6.78420 | 36056 ft | 436 kts | 319° |
| 2026-05-03 21:23 | 46.39242 | 6.73296 | 36065 ft | 435 kts | 319° |
| 2026-05-03 21:24 | 46.43918 | 6.67820 | 36066 ft | 428 kts | 308° |
| 2026-05-03 21:24 | 46.47304 | 6.60893 | 36081 ft | 419 kts | 295° |
| 2026-05-03 21:25 | 46.50170 | 6.53514 | 36069 ft | 420 kts | 295° |
| 2026-05-03 21:25 | 46.53045 | 6.46110 | 36068 ft | 421 kts | 295° |
| 2026-05-03 21:26 | 46.55942 | 6.38714 | 36070 ft | 422 kts | 295° |
| 2026-05-03 21:26 | 46.58857 | 6.31293 | 36063 ft | 423 kts | 295° |
| 2026-05-03 21:27 | 46.61754 | 6.23901 | 36072 ft | 424 kts | 295° |
| 2026-05-03 21:27 | 46.64673 | 6.16433 | 36067 ft | 425 kts | 295° |
| 2026-05-03 21:28 | 46.67591 | 6.08945 | 36065 ft | 426 kts | 295° |
| 2026-05-03 21:28 | 46.70509 | 6.01437 | 36055 ft | 426 kts | 295° |
| 2026-05-03 21:29 | 46.73421 | 5.93922 | 36059 ft | 426 kts | 295° |
| 2026-05-03 21:29 | 46.76328 | 5.86400 | 36044 ft | 426 kts | 295° |
| 2026-05-03 21:30 | 46.79230 | 5.78872 | 36039 ft | 425 kts | 295° |
| 2026-05-03 21:30 | 46.82434 | 5.71585 | 36022 ft | 431 kts | 306° |
| 2026-05-03 21:31 | 46.86758 | 5.65430 | 36023 ft | 435 kts | 312° |
| 2026-05-03 21:31 | 46.91217 | 5.59441 | 36023 ft | 435 kts | 312° |
| 2026-05-03 21:32 | 46.95620 | 5.53450 | 36028 ft | 435 kts | 311° |
| 2026-05-03 21:32 | 47.00028 | 5.47380 | 36025 ft | 435 kts | 311° |
| 2026-05-03 21:33 | 47.04435 | 5.41284 | 36018 ft | 436 kts | 311° |
| 2026-05-03 21:33 | 47.06634 | 5.38234 | 35880 ft | 438 kts | 311° |
| 2026-05-03 21:33 | 47.08864 | 5.35137 | 35442 ft | 440 kts | 311° |
| 2026-05-03 21:34 | 47.11073 | 5.32073 | 35004 ft | 435 kts | 311° |
| 2026-05-03 21:34 | 47.13262 | 5.29032 | 34581 ft | 432 kts | 311° |
| 2026-05-03 21:34 | 47.15439 | 5.26004 | 34157 ft | 429 kts | 311° |
| 2026-05-03 21:34 | 47.17597 | 5.22996 | 33696 ft | 426 kts | 311° |
| 2026-05-03 21:35 | 47.19734 | 5.20013 | 33244 ft | 422 kts | 311° |
| 2026-05-03 21:35 | 47.21856 | 5.17047 | 32809 ft | 419 kts | 311° |
| 2026-05-03 21:35 | 47.23962 | 5.14102 | 32409 ft | 415 kts | 311° |
| 2026-05-03 21:35 | 47.26043 | 5.11189 | 31991 ft | 411 kts | 311° |
| 2026-05-03 21:36 | 47.28095 | 5.08281 | 31596 ft | 407 kts | 310° |
| 2026-05-03 21:36 | 47.30063 | 5.05313 | 31193 ft | 403 kts | 309° |
| 2026-05-03 21:36 | 47.31981 | 5.02331 | 30819 ft | 399 kts | 308° |
| 2026-05-03 21:36 | 47.33880 | 4.99360 | 30439 ft | 397 kts | 308° |
| 2026-05-03 21:37 | 47.35770 | 4.96411 | 30036 ft | 394 kts | 308° |
| 2026-05-03 21:37 | 47.37653 | 4.93485 | 29591 ft | 391 kts | 308° |
| 2026-05-03 21:37 | 47.39520 | 4.90594 | 29189 ft | 387 kts | 308° |
| 2026-05-03 21:37 | 47.41370 | 4.87731 | 28778 ft | 383 kts | 308° |
| 2026-05-03 21:38 | 47.43197 | 4.84904 | 28389 ft | 379 kts | 308° |
| 2026-05-03 21:38 | 47.45013 | 4.82090 | 27973 ft | 376 kts | 308° |
| 2026-05-03 21:38 | 47.46813 | 4.79299 | 27574 ft | 373 kts | 308° |
| 2026-05-03 21:38 | 47.48598 | 4.76528 | 27177 ft | 371 kts | 308° |
| 2026-05-03 21:39 | 47.50365 | 4.73782 | 26828 ft | 367 kts | 308° |
| 2026-05-03 21:39 | 47.52119 | 4.71059 | 26539 ft | 364 kts | 308° |
| 2026-05-03 21:39 | 47.53878 | 4.68318 | 26265 ft | 372 kts | 308° |
| 2026-05-03 21:39 | 47.55672 | 4.65516 | 25958 ft | 378 kts | 308° |
| 2026-05-03 21:40 | 47.57458 | 4.62728 | 25650 ft | 378 kts | 308° |
| 2026-05-03 21:40 | 47.59263 | 4.59914 | 25328 ft | 375 kts | 308° |
| 2026-05-03 21:40 | 47.61055 | 4.57118 | 25018 ft | 373 kts | 308° |
| 2026-05-03 21:40 | 47.62832 | 4.54342 | 24717 ft | 370 kts | 308° |
| 2026-05-03 21:41 | 47.64606 | 4.51565 | 24417 ft | 368 kts | 308° |
| 2026-05-03 21:41 | 47.66364 | 4.48810 | 24118 ft | 367 kts | 308° |
| 2026-05-03 21:41 | 47.68113 | 4.46064 | 23820 ft | 366 kts | 308° |
| 2026-05-03 21:41 | 47.69859 | 4.43320 | 23514 ft | 365 kts | 308° |
| 2026-05-03 21:42 | 47.71601 | 4.40580 | 23173 ft | 364 kts | 308° |
| 2026-05-03 21:42 | 47.73342 | 4.37837 | 22841 ft | 363 kts | 308° |
| 2026-05-03 21:42 | 47.75071 | 4.35113 | 22534 ft | 362 kts | 308° |
| 2026-05-03 21:42 | 47.76797 | 4.32390 | 22228 ft | 361 kts | 308° |
| 2026-05-03 21:43 | 47.78516 | 4.29675 | 21929 ft | 360 kts | 308° |
| 2026-05-03 21:43 | 47.80230 | 4.26965 | 21638 ft | 359 kts | 308° |
| 2026-05-03 21:43 | 47.81938 | 4.24260 | 21345 ft | 358 kts | 308° |
| 2026-05-03 21:43 | 47.83643 | 4.21560 | 21059 ft | 358 kts | 308° |
| 2026-05-03 21:44 | 47.85349 | 4.18856 | 20765 ft | 358 kts | 308° |
| 2026-05-03 21:44 | 47.87049 | 4.16154 | 20470 ft | 357 kts | 307° |
| 2026-05-03 21:44 | 47.88410 | 4.13142 | 20155 ft | 346 kts | 287° |
| 2026-05-03 21:44 | 47.89081 | 4.09759 | 19921 ft | 338 kts | 278° |
| 2026-05-03 21:45 | 47.89582 | 4.06341 | 19635 ft | 337 kts | 277° |
| 2026-05-03 21:45 | 47.90051 | 4.02918 | 19362 ft | 336 kts | 277° |
| 2026-05-03 21:45 | 47.90517 | 3.99513 | 19087 ft | 335 kts | 277° |
| 2026-05-03 21:45 | 47.90989 | 3.96117 | 18808 ft | 334 kts | 277° |
| 2026-05-03 21:46 | 47.91468 | 3.92730 | 18541 ft | 333 kts | 278° |
| 2026-05-03 21:46 | 47.91949 | 3.89359 | 18265 ft | 332 kts | 278° |
| 2026-05-03 21:46 | 47.92425 | 3.86043 | 17960 ft | 331 kts | 278° |
| 2026-05-03 21:46 | 47.92906 | 3.82700 | 17668 ft | 329 kts | 278° |
| 2026-05-03 21:47 | 47.93389 | 3.79338 | 17378 ft | 326 kts | 278° |
| 2026-05-03 21:47 | 47.93856 | 3.76085 | 17118 ft | 324 kts | 278° |
| 2026-05-03 21:47 | 47.94326 | 3.72809 | 16854 ft | 322 kts | 278° |
| 2026-05-03 21:47 | 47.94791 | 3.69553 | 16587 ft | 320 kts | 278° |
| 2026-05-03 21:48 | 47.95253 | 3.66321 | 16330 ft | 318 kts | 278° |
| 2026-05-03 21:48 | 47.95711 | 3.63108 | 16071 ft | 316 kts | 278° |
| 2026-05-03 21:48 | 47.96166 | 3.59905 | 15815 ft | 314 kts | 278° |
| 2026-05-03 21:48 | 47.96844 | 3.56809 | 15536 ft | 319 kts | 295° |
| 2026-05-03 21:49 | 47.98195 | 3.54159 | 15307 ft | 322 kts | 309° |
| 2026-05-03 21:49 | 47.99753 | 3.51761 | 15040 ft | 322 kts | 311° |
| 2026-05-03 21:49 | 48.01341 | 3.49396 | 14778 ft | 322 kts | 311° |
| 2026-05-03 21:49 | 48.02930 | 3.47032 | 14511 ft | 322 kts | 311° |
| 2026-05-03 21:50 | 48.04512 | 3.44660 | 14242 ft | 322 kts | 311° |
| 2026-05-03 21:50 | 48.06085 | 3.42283 | 13985 ft | 321 kts | 310° |
| 2026-05-03 21:50 | 48.07650 | 3.39903 | 13717 ft | 321 kts | 310° |
| 2026-05-03 21:50 | 48.09213 | 3.37518 | 13422 ft | 321 kts | 310° |
| 2026-05-03 21:51 | 48.10770 | 3.35134 | 13144 ft | 320 kts | 310° |
| 2026-05-03 21:51 | 48.12323 | 3.32754 | 12876 ft | 318 kts | 310° |
| 2026-05-03 21:51 | 48.13858 | 3.30398 | 12607 ft | 314 kts | 310° |
| 2026-05-03 21:51 | 48.15373 | 3.28071 | 12341 ft | 309 kts | 310° |
| 2026-05-03 21:52 | 48.16865 | 3.25777 | 12084 ft | 306 kts | 310° |
| 2026-05-03 21:52 | 48.18349 | 3.23492 | 11849 ft | 305 kts | 310° |
| 2026-05-03 21:52 | 48.19820 | 3.21227 | 11596 ft | 301 kts | 310° |
| 2026-05-03 21:52 | 48.21271 | 3.18992 | 11350 ft | 297 kts | 310° |
| 2026-05-03 21:53 | 48.22702 | 3.16790 | 11113 ft | 293 kts | 310° |
| 2026-05-03 21:53 | 48.24119 | 3.14608 | 10877 ft | 292 kts | 310° |
| 2026-05-03 21:53 | 48.25534 | 3.12426 | 10646 ft | 292 kts | 310° |
| 2026-05-03 21:53 | 48.26954 | 3.10236 | 10403 ft | 293 kts | 310° |
| 2026-05-03 21:54 | 48.28370 | 3.08049 | 10162 ft | 290 kts | 310° |
| 2026-05-03 21:54 | 48.29762 | 3.05902 | 10013 ft | 283 kts | 310° |
| 2026-05-03 21:54 | 48.31111 | 3.03820 | 9962 ft | 272 kts | 310° |
| 2026-05-03 21:54 | 48.32399 | 3.01829 | 9941 ft | 261 kts | 310° |
| 2026-05-03 21:55 | 48.33688 | 2.99829 | 9354 ft | 273 kts | 310° |
| 2026-05-03 21:55 | 48.35008 | 2.97777 | 9033 ft | 274 kts | 310° |
| 2026-05-03 21:55 | 48.36329 | 2.95726 | 8796 ft | 272 kts | 310° |
| 2026-05-03 21:55 | 48.37629 | 2.93708 | 8564 ft | 272 kts | 310° |
| 2026-05-03 21:56 | 48.38941 | 2.91669 | 8344 ft | 271 kts | 310° |
| 2026-05-03 21:56 | 48.40308 | 2.89726 | 8093 ft | 274 kts | 323° |
| 2026-05-03 21:56 | 48.42098 | 2.88705 | 8022 ft | 280 kts | 347° |
| 2026-05-03 21:56 | 48.44038 | 2.88334 | 7990 ft | 280 kts | 351° |
| 2026-05-03 21:57 | 48.45950 | 2.88051 | 7844 ft | 276 kts | 352° |
| 2026-05-03 21:57 | 48.47871 | 2.87778 | 7583 ft | 275 kts | 352° |
| 2026-05-03 21:57 | 48.49776 | 2.87513 | 7266 ft | 276 kts | 352° |
| 2026-05-03 21:57 | 48.51698 | 2.87245 | 6951 ft | 277 kts | 352° |
| 2026-05-03 21:58 | 48.53613 | 2.86977 | 6690 ft | 276 kts | 352° |
| 2026-05-03 21:58 | 48.55519 | 2.86709 | 6438 ft | 274 kts | 352° |
| 2026-05-03 21:58 | 48.57397 | 2.86445 | 6160 ft | 269 kts | 352° |
| 2026-05-03 21:58 | 48.59251 | 2.86185 | 5827 ft | 263 kts | 352° |
| 2026-05-03 21:59 | 48.61063 | 2.85932 | 5496 ft | 259 kts | 352° |
| 2026-05-03 21:59 | 48.62847 | 2.85681 | 5268 ft | 256 kts | 352° |
| 2026-05-03 21:59 | 48.64613 | 2.85431 | 5049 ft | 252 kts | 352° |
| 2026-05-03 21:59 | 48.66327 | 2.85191 | 4844 ft | 243 kts | 352° |
| 2026-05-03 22:00 | 48.67993 | 2.84958 | 4666 ft | 237 kts | 352° |
| 2026-05-03 22:00 | 48.69623 | 2.84733 | 4552 ft | 234 kts | 352° |
| 2026-05-03 22:00 | 48.71266 | 2.84504 | 4259 ft | 238 kts | 352° |
| 2026-05-03 22:00 | 48.72883 | 2.84282 | 4046 ft | 231 kts | 352° |
| 2026-05-03 22:01 | 48.74473 | 2.84064 | 3863 ft | 228 kts | 352° |
| 2026-05-03 22:01 | 48.76051 | 2.83830 | 3718 ft | 226 kts | 347° |
| 2026-05-03 22:01 | 48.77422 | 2.82878 | 3637 ft | 215 kts | 313° |
| 2026-05-03 22:01 | 48.78172 | 2.80982 | 3466 ft | 211 kts | 279° |
| 2026-05-03 22:02 | 48.78360 | 2.78777 | 3341 ft | 212 kts | 272° |
| 2026-05-03 22:02 | 48.78476 | 2.76584 | 3153 ft | 205 kts | 272° |
| 2026-05-03 22:02 | 48.78583 | 2.74459 | 3041 ft | 200 kts | 272° |
| 2026-05-03 22:02 | 48.78515 | 2.72337 | 3026 ft | 202 kts | 259° |
| 2026-05-03 22:03 | 48.78266 | 2.70284 | 2990 ft | 191 kts | 256° |
| 2026-05-03 22:03 | 48.77965 | 2.68417 | 2967 ft | 175 kts | 254° |
| 2026-05-03 22:03 | 48.77651 | 2.66671 | 2987 ft | 173 kts | 253° |
| 2026-05-03 22:03 | 48.77322 | 2.64891 | 2998 ft | 177 kts | 253° |
| 2026-05-03 22:04 | 48.76985 | 2.63085 | 2998 ft | 179 kts | 253° |
| 2026-05-03 22:04 | 48.76648 | 2.61272 | 2985 ft | 178 kts | 253° |
| 2026-05-03 22:04 | 48.76315 | 2.59487 | 2936 ft | 171 kts | 253° |
| 2026-05-03 22:04 | 48.75999 | 2.57790 | 2746 ft | 164 kts | 253° |
| 2026-05-03 22:05 | 48.75693 | 2.56142 | 2546 ft | 161 kts | 253° |
| 2026-05-03 22:05 | 48.75390 | 2.54513 | 2341 ft | 161 kts | 253° |
| 2026-05-03 22:05 | 48.75097 | 2.52934 | 2130 ft | 149 kts | 253° |
| 2026-05-03 22:05 | 48.74827 | 2.51475 | 1938 ft | 140 kts | 253° |
| 2026-05-03 22:06 | 48.74561 | 2.50046 | 1746 ft | 142 kts | 253° |
| 2026-05-03 22:06 | 48.74291 | 2.48589 | 1587 ft | 143 kts | 253° |
| 2026-05-03 22:06 | 48.74021 | 2.47137 | 1413 ft | 149 kts | 253° |
| 2026-05-03 22:06 | 48.73741 | 2.45587 | 1177 ft | 150 kts | 253° |
| 2026-05-03 22:07 | 48.73551 | 2.44580 | 1016 ft | 151 kts | 251° |
| 2026-05-03 22:07 | 48.73264 | 2.43051 | 797 ft | 150 kts | 253° |
| 2026-05-03 22:07 | 48.72896 | 2.41041 | 503 ft | 150 kts | 251° |
| 2026-05-03 22:07 | 48.72619 | 2.39523 | 301 ft | 149 kts | 252° |
| 2026-05-03 22:08 | 48.72359 | 2.38149 | 298 ft | 113 kts | 254° |
| 2026-05-03 22:08 | 48.72212 | 2.37326 | 293 ft | 49 kts | 254° |
| 2026-05-03 22:08 | 48.72169 | 2.37018 | 291 ft | 25 kts | 272° |
| 2026-05-03 22:08 | 48.72178 | 2.36845 | 293 ft | 24 kts | 274° |
| 2026-05-03 22:09 | 48.72194 | 2.36559 | 292 ft | 11 kts | 284° |
| 2026-05-03 22:09 | 48.72214 | 2.36488 | 293 ft | 11 kts | 295° |
| 2026-05-03 22:09 | 48.72248 | 2.36393 | 294 ft | 10 kts | 302° |
| 2026-05-03 22:10 | 48.72359 | 2.36273 | 295 ft | 10 kts | 344° |
| 2026-05-03 22:10 | 48.72422 | 2.36294 | 292 ft | 10 kts | 41° |
| 2026-05-03 22:10 | 48.72450 | 2.36384 | 292 ft | 9 kts | 71° |
| 2026-05-03 22:10 | 48.72460 | 2.36428 | 290 ft | 4 kts | 72° |
| 2026-05-03 22:11 | 48.72467 | 2.36469 | 292 ft | 4 kts | 75° |
| 2026-05-03 22:11 | 48.72475 | 2.36510 | 296 ft | 4 kts | 75° |
| 2026-05-03 22:11 | 48.72483 | 2.36554 | 293 ft | 4 kts | 74° |
| 2026-05-03 22:11 | 48.72491 | 2.36598 | 296 ft | 5 kts | 76° |
| 2026-05-03 22:12 | 48.72500 | 2.36650 | 292 ft | 5 kts | 75° |
| 2026-05-03 22:12 | 48.72503 | 2.36673 | 292 ft | 2 kts | 77° |
| 2026-05-03 22:12 | 48.72509 | 2.36712 | 294 ft | 5 kts | 84° |
| 2026-05-03 22:12 | 48.72499 | 2.36724 | 295 ft | 1 kts | 173° |
| 2026-05-03 22:13 | 48.72487 | 2.36720 | 292 ft | 3 kts | 194° |
| 2026-05-03 22:13 | 48.72466 | 2.36709 | 292 ft | 3 kts | 201° |
| 2026-05-03 22:13 | 48.72449 | 2.36699 | 291 ft | 1 kts | 201° |
| 2026-05-03 22:13 | 48.72443 | 2.36695 | 290 ft | 1 kts | 201° |
| 2026-05-03 22:14 | 48.72439 | 2.36693 | 290 ft | 0 kts | 201° |
| 2026-05-03 22:14 | 48.72438 | 2.36693 | 290 ft | 0 kts | 201° |